Time;durP1;ratioP1;P1;durP2;ratioP2;P2;SDS_P1;SDS_P2;PMS_P1;PMS_P2;Temp;Humidity;BMP_temperature;BMP_pressure;BME280_temperature;BME280_humidity;BME280_pressure;Samples;Min_cycle;Max_cycle;Signal;HPM_P1;HPM_P2
2021/10/19 00:00:29;;;;;;;17.60;7.82;;;17.20;99.90;;;16.67;100.00;101582.47;4118720;28;20031;-68
2021/10/19 00:02:30;;;;;;;18.27;8.32;;;17.20;99.90;;;16.70;100.00;101587.44;4118847;28;20494;-68
2021/10/19 00:04:31;;;;;;;18.38;7.82;;;17.20;99.90;;;16.66;100.00;101584.31;4118849;28;20544;-69
2021/10/19 00:06:32;;;;;;;23.25;8.80;;;17.20;99.90;;;16.66;100.00;101586.16;4117836;28;20031;-68
2021/10/19 00:08:33;;;;;;;20.25;10.07;;;17.20;99.90;;;16.76;100.00;101592.06;4117400;28;20081;-68
2021/10/19 00:10:34;;;;;;;16.15;8.32;;;17.20;99.90;;;16.78;100.00;101595.41;4119004;28;20027;-68
2021/10/19 00:12:37;;;;;;;17.30;8.55;;;17.30;99.90;;;16.71;100.00;101592.59;4118978;28;20035;-68
2021/10/19 00:14:38;;;;;;;13.40;7.75;;;17.20;99.90;;;16.71;100.00;101594.44;4118307;28;20027;-68
2021/10/19 00:16:39;;;;;;;21.00;9.82;;;17.20;99.90;;;16.81;100.00;101589.72;4118711;28;20027;-68
2021/10/19 00:18:40;;;;;;;18.02;8.98;;;17.30;99.90;;;16.73;100.00;101585.25;4130654;28;20074;-68
2021/10/19 00:20:40;;;;;;;17.20;8.40;;;17.20;99.90;;;16.77;100.00;101585.75;4118802;28;20051;-68
2021/10/19 00:22:42;;;;;;;14.95;9.65;;;17.30;99.90;;;16.71;100.00;101587.28;4118724;28;20031;-68
2021/10/19 00:24:43;;;;;;;16.17;8.98;;;17.20;99.90;;;16.70;100.00;101587.44;4101307;28;20029;-68
2021/10/19 00:26:44;;;;;;;16.63;10.63;;;17.30;99.90;;;16.72;100.00;101588.13;4123923;28;20109;-68
2021/10/19 00:28:45;;;;;;;15.88;9.65;;;17.30;99.90;;;16.78;100.00;101584.75;4119872;28;20030;-68
2021/10/19 00:30:46;;;;;;;21.92;10.32;;;17.30;99.90;;;16.75;100.00;101598.41;4118465;28;20041;-68
2021/10/19 00:32:47;;;;;;;20.67;10.82;;;17.30;99.90;;;16.76;100.00;101594.72;4118661;28;20096;-68
2021/10/19 00:34:48;;;;;;;19.02;10.13;;;17.30;99.90;;;16.68;100.00;101576.97;4118330;28;20039;-68
2021/10/19 00:36:49;;;;;;;19.80;10.00;;;17.30;99.90;;;16.88;100.00;101596.84;4118366;28;20023;-68
2021/10/19 00:38:50;;;;;;;16.55;9.10;;;17.30;99.90;;;16.85;100.00;101602.50;4118276;28;20049;-68
2021/10/19 00:40:51;;;;;;;17.30;9.82;;;17.40;99.90;;;16.82;100.00;101597.53;4118452;28;20031;-68
2021/10/19 00:42:53;;;;;;;17.55;9.48;;;17.30;99.90;;;16.83;100.00;101598.38;4118486;28;20065;-68
2021/10/19 00:44:54;;;;;;;15.85;9.77;;;17.30;99.90;;;16.74;100.00;101588.75;4116768;28;20031;-68
2021/10/19 00:46:58;;;;;;;16.95;10.05;;;17.40;99.90;;;16.86;100.00;101598.00;4118355;28;20037;-68
2021/10/19 00:48:59;;;;;;;19.77;9.70;;;17.30;99.90;;;16.82;100.00;101602.03;4118341;28;20398;-68
2021/10/19 00:51:00;;;;;;;16.52;9.35;;;17.30;99.90;;;16.82;100.00;101599.38;4118341;28;20445;-68
2021/10/19 00:53:02;;;;;;;22.50;10.52;;;17.30;99.90;;;16.79;100.00;101595.22;4116936;28;20023;-68
2021/10/19 00:55:03;;;;;;;17.38;9.27;;;17.30;99.90;;;16.79;100.00;101602.38;4116998;28;20098;-68
2021/10/19 00:57:05;;;;;;;16.30;9.35;;;17.40;99.90;;;16.79;100.00;101607.72;4116465;28;20081;-68
2021/10/19 00:59:07;;;;;;;18.52;8.65;;;17.30;99.90;;;16.83;100.00;101614.34;4117894;28;20041;-68
2021/10/19 01:01:09;;;;;;;19.27;8.65;;;17.40;99.90;;;16.79;100.00;101605.03;4116882;28;20026;-69
2021/10/19 01:03:10;;;;;;;14.50;9.20;;;17.30;99.90;;;16.82;100.00;101607.34;4118213;28;20037;-68
2021/10/19 01:05:12;;;;;;;13.43;8.65;;;17.30;99.90;;;16.81;100.00;101611.88;4117984;28;20058;-68
2021/10/19 01:07:14;;;;;;;13.43;8.43;;;17.40;99.90;;;16.79;100.00;101615.69;4117945;28;20078;-68
2021/10/19 01:09:15;;;;;;;17.10;9.30;;;17.40;99.90;;;16.75;100.00;101614.41;4116622;28;20464;-68
2021/10/19 01:11:17;;;;;;;16.50;8.70;;;17.30;99.90;;;16.77;100.00;101623.88;4118119;28;20070;-68
2021/10/19 01:13:18;;;;;;;15.10;8.70;;;17.30;99.90;;;16.81;100.00;101606.56;4116880;28;20027;-68
2021/10/19 01:15:19;;;;;;;16.83;8.80;;;17.30;99.90;;;16.83;100.00;101606.38;4117581;28;20027;-68
2021/10/19 01:17:20;;;;;;;17.30;9.25;;;17.40;99.90;;;16.81;100.00;101608.38;4116440;28;20497;-69
2021/10/19 01:19:24;;;;;;;13.32;8.05;;;17.30;99.90;;;16.77;100.00;101615.06;4119246;28;20031;-69
2021/10/19 01:21:25;;;;;;;16.35;8.35;;;17.30;99.90;;;16.79;100.00;101611.22;4118023;28;20033;-69
2021/10/19 01:23:26;;;;;;;17.15;7.82;;;17.30;99.90;;;16.86;100.00;101614.00;4117869;28;20482;-69
2021/10/19 01:25:30;;;;;;;16.80;8.52;;;17.30;99.90;;;16.88;100.00;101611.97;4116612;28;20039;-69
2021/10/19 01:27:31;;;;;;;13.60;7.53;;;17.30;99.90;;;16.89;100.00;101613.66;4129438;28;20092;-69
2021/10/19 01:29:32;;;;;;;18.10;9.25;;;17.30;99.90;;;16.83;100.00;101617.03;4116321;28;20027;-69
2021/10/19 01:31:33;;;;;;;12.35;7.97;;;17.30;99.90;;;16.75;100.00;101611.75;4116540;28;20027;-69
2021/10/19 01:33:34;;;;;;;13.50;7.78;;;17.30;99.90;;;16.75;100.00;101615.25;4117647;28;20429;-68
2021/10/19 01:35:42;;;;;;;14.13;7.10;;;17.30;99.90;;;16.73;100.00;101619.06;4117489;28;20054;-69
2021/10/19 01:37:44;;;;;;;12.65;7.93;;;17.30;99.90;;;16.75;100.00;101606.41;4117791;28;20022;-68
2021/10/19 01:39:45;;;;;;;12.82;8.00;;;17.30;99.90;;;16.77;100.00;101615.06;4117750;28;20054;-68
2021/10/19 01:41:46;;;;;;;13.20;7.40;;;17.30;99.90;;;16.79;100.00;101618.38;4117586;28;20027;-69
2021/10/19 01:43:47;;;;;;;15.23;7.80;;;17.30;99.90;;;16.79;100.00;101613.03;4117594;28;20041;-68
2021/10/19 01:45:51;;;;;;;15.07;7.63;;;17.20;99.90;;;16.78;100.00;101612.22;4100731;28;20035;-68
2021/10/19 01:47:52;;;;;;;;;;;17.30;99.90;;;16.77;100.00;101610.56;4112853;28;20037;-68
2021/10/19 01:49:53;;;;;;;10.02;6.95;;;17.30;99.90;;;16.73;100.00;101605.75;4116185;28;19914;-68
2021/10/19 01:51:54;;;;;;;12.48;7.32;;;17.20;99.90;;;16.73;100.00;101609.25;4116499;28;20031;-68
2021/10/19 01:53:55;;;;;;;10.88;7.60;;;17.20;99.90;;;16.68;100.00;101616.94;4117592;28;20065;-68
2021/10/19 01:55:56;;;;;;;14.20;7.22;;;17.20;99.90;;;16.72;100.00;101606.78;4116382;28;20124;-68
2021/10/19 01:57:57;;;;;;;12.07;7.20;;;17.20;99.90;;;16.72;100.00;101612.09;4117597;28;20027;-68
2021/10/19 01:59:58;;;;;;;16.58;8.68;;;17.20;99.90;;;16.67;100.00;101598.44;4117307;28;20082;-68
2021/10/19 02:01:58;;;;;;;13.25;7.30;;;17.20;99.90;;;16.68;100.00;101611.59;4117466;28;20026;-68
2021/10/19 02:03:59;;;;;;;12.63;7.55;;;17.20;99.90;;;16.68;100.00;101600.13;4117466;28;20033;-68
2021/10/19 02:06:00;;;;;;;10.63;6.90;;;17.20;99.90;;;16.76;100.00;101594.72;4117272;28;20052;-68
2021/10/19 02:08:03;;;;;;;15.82;7.20;;;17.20;99.90;;;16.68;100.00;101595.63;4116891;28;20026;-68
2021/10/19 02:10:07;;;;;;;12.07;6.82;;;17.10;99.90;;;16.58;100.00;101595.84;4116911;28;20023;-68
2021/10/19 02:12:08;;;;;;;10.60;6.63;;;17.10;99.90;;;16.53;100.00;101590.19;4117292;28;20031;-68
2021/10/19 02:14:09;;;;;;;16.20;7.07;;;17.10;99.90;;;16.53;100.00;101587.50;4116973;28;20031;-68
2021/10/19 02:16:10;;;;;;;11.45;7.40;;;17.00;99.90;;;16.47;100.00;101592.69;4117542;28;20072;-68
2021/10/19 02:18:11;;;;;;;11.38;7.18;;;17.00;99.90;;;16.53;100.00;101584.84;4117358;28;20130;-68
2021/10/19 02:20:12;;;;;;;13.30;7.25;;;16.90;99.90;;;16.44;100.00;101585.06;4116122;28;20073;-68
2021/10/19 02:22:13;;;;;;;12.80;6.22;;;17.00;99.90;;;16.37;100.00;101589.41;4117221;28;20034;-68
2021/10/19 02:24:14;;;;;;;8.95;5.82;;;16.90;99.90;;;16.26;100.00;101579.13;4117514;28;20479;-68
2021/10/19 02:26:15;;;;;;;11.65;6.55;;;16.80;99.90;;;16.32;100.00;101576.63;4117335;28;20027;-68
2021/10/19 02:28:16;;;;;;;12.70;7.28;;;16.80;99.90;;;16.28;100.00;101577.97;4117223;28;20042;-68
2021/10/19 02:30:18;;;;;;;11.75;6.70;;;16.80;99.90;;;16.35;100.00;101578.94;4116904;28;20058;-68
2021/10/19 02:32:19;;;;;;;12.27;7.00;;;16.80;99.90;;;16.29;100.00;101576.97;4116164;28;20023;-68
2021/10/19 02:34:22;;;;;;;10.73;6.97;;;16.80;99.90;;;16.30;100.00;101581.31;4117247;28;20084;-68
2021/10/19 02:36:23;;;;;;;11.82;6.10;;;16.80;99.90;;;16.23;100.00;101579.47;4100179;28;20030;-68
2021/10/19 02:38:24;;;;;;;9.60;6.30;;;16.80;99.90;;;16.31;100.00;101582.09;4113239;28;20062;-68
2021/10/19 02:40:25;;;;;;;11.52;6.68;;;16.80;99.90;;;16.25;100.00;101575.63;4117233;28;20073;-68
2021/10/19 02:42:26;;;;;;;14.05;6.55;;;16.80;99.90;;;16.31;100.00;101582.09;4116014;28;20031;-68
2021/10/19 02:44:27;;;;;;;10.98;6.18;;;16.80;99.90;;;16.29;100.00;101582.28;4116872;28;20027;-68
2021/10/19 02:46:31;;;;;;;8.35;5.60;;;16.70;99.90;;;16.17;100.00;101570.34;4116955;28;20035;-68
2021/10/19 02:48:32;;;;;;;13.60;6.65;;;16.70;99.90;;;16.13;100.00;101571.69;4100343;28;20028;-68
2021/10/19 02:50:33;;;;;;;11.52;6.78;;;16.70;99.90;;;16.20;100.00;101567.34;4117237;28;20046;-68
2021/10/19 02:52:34;;;;;;;13.05;7.75;;;16.70;99.90;;;16.25;100.00;101567.66;4117055;28;20034;-68
2021/10/19 02:54:36;;;;;;;15.20;8.00;;;16.70;99.90;;;16.24;100.00;101563.34;4116887;28;20478;-68
2021/10/19 02:56:39;;;;;;;9.50;5.82;;;16.70;99.90;;;16.20;100.00;101572.69;4117042;28;20029;-68
2021/10/19 02:58:40;;;;;;;10.88;6.60;;;16.60;99.90;;;16.16;100.00;101560.69;4115614;28;20069;-68
2021/10/19 03:00:41;;;;;;;12.10;7.15;;;16.60;99.90;;;16.08;100.00;101575.88;4115813;28;20069;-68
2021/10/19 03:02:41;;;;;;;13.48;6.55;;;16.60;99.90;;;16.13;100.00;101563.72;4115654;28;20026;-68
2021/10/19 03:04:42;;;;;;;10.43;6.22;;;16.50;99.90;;;16.05;100.00;101561.09;4117012;28;20042;-68
2021/10/19 03:06:43;;;;;;;10.82;6.30;;;16.50;99.90;;;15.99;100.00;101561.78;4116894;28;20077;-68
2021/10/19 03:08:44;;;;;;;11.48;7.57;;;16.40;99.90;;;16.02;100.00;101559.59;4116765;28;20605;-68
2021/10/19 03:10:45;;;;;;;9.30;6.50;;;16.40;99.90;;;15.93;100.00;101557.97;4116796;28;20056;-68
2021/10/19 03:12:46;;;;;;;14.60;6.90;;;16.40;99.90;;;15.94;100.00;101549.00;4115600;28;20052;-68
2021/10/19 03:14:47;;;;;;;9.48;6.35;;;16.30;99.90;;;15.83;100.00;101552.00;4116604;28;20031;-68
2021/10/19 03:16:48;;;;;;;12.77;7.45;;;16.30;99.90;;;15.89;100.00;101550.47;4115568;28;20030;-68
2021/10/19 03:18:49;;;;;;;9.10;6.85;;;16.30;99.90;;;15.79;100.00;101549.84;4116623;28;20581;-68
2021/10/19 03:20:50;;;;;;;9.40;6.10;;;16.30;99.90;;;15.74;100.00;101546.88;4118427;28;20026;-68
2021/10/19 03:22:51;;;;;;;12.13;6.93;;;16.20;99.90;;;15.74;100.00;101553.00;4119601;28;20544;-68
2021/10/19 03:24:52;;;;;;;11.13;6.82;;;16.20;99.90;;;15.76;100.00;101543.06;4118388;28;20034;-68
2021/10/19 03:26:53;;;;;;;16.00;7.15;;;16.20;99.90;;;15.80;100.00;101538.22;4119468;28;20034;-68
2021/10/19 03:28:53;;;;;;;11.90;6.47;;;16.20;99.90;;;15.76;100.00;101539.56;4119030;28;20490;-68
2021/10/19 03:30:54;;;;;;;13.50;7.20;;;16.10;99.90;;;15.91;100.00;101537.84;4119432;28;20035;-68
2021/10/19 03:32:56;;;;;;;13.77;7.97;;;16.20;99.90;;;15.69;100.00;101536.75;4119427;28;20031;-68
2021/10/19 03:34:58;;;;;;;11.35;6.75;;;16.10;99.90;;;15.66;100.00;101537.09;4119380;28;20395;-68
2021/10/19 03:36:58;;;;;;;11.07;7.30;;;16.10;99.90;;;15.76;100.00;101550.19;4119350;28;20486;-68
2021/10/19 03:38:59;;;;;;;12.80;6.82;;;16.10;99.90;;;15.68;100.00;101543.06;4119375;28;20073;-68
2021/10/19 03:41:00;;;;;;;12.23;7.65;;;16.20;99.90;;;15.63;100.00;101547.22;4119300;28;20063;-68
2021/10/19 03:43:01;;;;;;;13.55;8.02;;;16.10;99.90;;;15.68;100.00;101547.56;4119217;28;20030;-68
2021/10/19 03:45:02;;;;;;;11.93;7.47;;;16.10;99.90;;;15.67;100.00;101543.22;4118863;28;20027;-68
2021/10/19 03:47:03;;;;;;;8.68;6.78;;;16.10;99.90;;;15.66;100.00;101549.53;4119269;28;20031;-68
2021/10/19 03:49:04;;;;;;;9.10;7.07;;;16.10;99.90;;;15.68;100.00;101553.69;4119116;28;20027;-68
2021/10/19 03:51:05;;;;;;;10.30;7.50;;;16.10;99.90;;;15.68;100.00;101550.22;4118161;28;20113;-68
2021/10/19 03:53:10;;;;;;;20.88;7.93;;;16.10;99.90;;;15.77;100.00;101551.88;4119052;28;20031;-68
2021/10/19 03:55:11;;;;;;;77.80;10.68;;;16.10;99.90;;;15.71;100.00;101552.56;4119111;28;20507;-69
2021/10/19 03:57:12;;;;;;;21.15;6.88;;;16.20;99.90;;;15.72;100.00;101544.38;4119112;28;20027;-69
2021/10/19 03:59:13;;;;;;;14.38;7.22;;;16.20;99.90;;;15.54;100.00;101551.72;4118915;28;20498;-69
2021/10/19 04:01:14;;;;;;;24.75;7.47;;;16.10;99.90;;;15.49;100.00;101544.28;4118899;28;20035;-69
2021/10/19 04:03:15;;;;;;;18.10;6.90;;;16.10;99.90;;;15.49;100.00;101549.59;4119316;28;20116;-69
2021/10/19 04:05:16;;;;;;;7.07;5.78;;;16.10;99.90;;;15.49;100.00;101554.06;4119080;28;20394;-69
2021/10/19 04:07:17;;;;;;;10.60;5.88;;;16.00;99.90;;;15.45;100.00;101555.38;4117772;28;20030;-68
2021/10/19 04:09:18;;;;;;;9.88;6.50;;;16.00;99.90;;;15.37;100.00;101556.22;4117771;28;20042;-68
2021/10/19 04:11:19;;;;;;;9.48;6.70;;;15.90;99.90;;;15.35;100.00;101558.19;4119061;28;20023;-68
2021/10/19 04:13:20;;;;;;;11.48;6.70;;;15.90;99.90;;;15.36;100.00;101551.88;4119019;28;20071;-68
2021/10/19 04:15:21;;;;;;;8.80;6.47;;;15.90;99.90;;;15.35;100.00;101552.06;4118672;28;20072;-68
2021/10/19 04:17:22;;;;;;;10.52;6.82;;;15.80;99.90;;;15.35;100.00;101552.06;4118610;28;20444;-69
2021/10/19 04:19:23;;;;;;;19.45;7.30;;;15.80;99.90;;;15.33;100.00;101551.38;4118946;28;20027;-69
2021/10/19 04:21:24;;;;;;;9.57;6.97;;;15.90;99.90;;;15.38;100.00;101546.41;4117745;28;20068;-69
2021/10/19 04:23:25;;;;;;;9.07;6.22;;;15.90;99.90;;;15.36;100.00;101549.22;4118918;28;20038;-68
2021/10/19 04:25:26;;;;;;;9.77;6.43;;;15.80;99.90;;;15.29;100.00;101550.88;4118938;28;20072;-69
2021/10/19 04:27:27;;;;;;;10.25;7.18;;;15.80;99.90;;;15.32;100.00;101553.19;4118916;28;20082;-69
2021/10/19 04:29:28;;;;;;;12.80;7.95;;;15.90;99.90;;;15.39;100.00;101553.38;4117452;28;20414;-68
2021/10/19 04:31:30;;;;;;;10.52;7.82;;;15.80;99.90;;;15.47;100.00;101553.41;4116510;28;20027;-69
2021/10/19 04:33:31;;;;;;;12.90;8.02;;;15.90;99.90;;;15.39;100.00;101564.84;4117563;28;20027;-68
2021/10/19 04:35:31;;;;;;;10.52;6.88;;;15.90;99.90;;;15.38;100.00;101554.38;4118675;28;20058;-68
2021/10/19 04:37:32;;;;;;;13.05;8.77;;;15.90;99.90;;;15.49;100.00;101546.94;4118690;28;20030;-68
2021/10/19 04:39:35;;;;;;;11.88;7.78;;;15.90;99.90;;;15.41;100.00;101567.34;4117412;28;20038;-68
2021/10/19 04:41:43;;;;;;;12.93;8.70;;;15.90;99.90;;;15.45;100.00;101558.84;4118617;28;20062;-68
2021/10/19 04:43:44;;;;;;;9.30;8.00;;;15.90;99.90;;;15.45;100.00;101558.84;4118236;28;20026;-69
2021/10/19 04:45:45;;;;;;;13.63;7.78;;;15.90;99.90;;;15.45;100.00;101563.34;4118640;28;20572;-69
2021/10/19 04:47:46;;;;;;;11.13;8.13;;;15.90;99.90;;;15.46;100.00;101560.53;4118563;28;20030;-69
2021/10/19 04:49:47;;;;;;;14.63;9.48;;;15.90;99.90;;;15.41;100.00;101554.06;4118277;28;20398;-69
2021/10/19 04:51:47;;;;;;;14.15;9.05;;;16.00;99.90;;;15.38;100.00;101554.38;4118642;28;20023;-69
2021/10/19 04:53:48;;;;;;;16.90;10.40;;;15.90;99.90;;;15.40;100.00;101549.72;4118599;28;20077;-69
2021/10/19 04:55:50;;;;;;;13.90;9.02;;;15.90;99.90;;;15.38;100.00;101549.88;4117188;28;20599;-69
2021/10/19 04:57:50;;;;;;;18.67;10.32;;;15.90;99.90;;;15.40;100.00;101550.56;4118385;28;20465;-69
2021/10/19 04:59:51;;;;;;;20.60;9.30;;;15.90;99.90;;;15.32;100.00;101552.41;4117112;28;20023;-69
2021/10/19 05:01:52;;;;;;;14.65;10.00;;;15.90;99.90;;;15.37;100.00;101550.91;4118482;28;20035;-69
2021/10/19 05:03:53;;;;;;;14.85;9.52;;;15.90;99.90;;;15.34;100.00;101556.53;4117286;28;20072;-68
2021/10/19 05:05:54;;;;;;;25.70;10.93;;;15.80;99.90;;;15.31;100.00;101561.38;4118223;28;20030;-69
2021/10/19 05:07:55;;;;;;;14.00;9.57;;;15.90;99.90;;;15.36;100.00;101562.53;4118120;28;20757;-68
2021/10/19 05:09:56;;;;;;;9.93;8.73;;;15.80;99.90;;;15.31;100.00;101556.88;4118218;28;20035;-69
2021/10/19 05:11:58;;;;;;;22.15;9.30;;;15.80;99.90;;;15.25;100.00;101562.88;4118165;28;20553;-68
2021/10/19 05:13:58;;;;;;;10.77;8.65;;;15.80;99.90;;;15.27;100.00;101552.88;4117915;28;20066;-69
2021/10/19 05:15:59;;;;;;;13.98;9.45;;;15.70;99.90;;;15.28;100.00;101559.03;4116995;28;20035;-68
2021/10/19 05:18:00;;;;;;;12.98;9.30;;;15.80;99.90;;;15.29;100.00;101550.88;4118189;28;20047;-68
2021/10/19 05:20:03;;;;;;;15.38;9.10;;;15.70;99.90;;;15.26;100.00;101548.56;4118067;28;20034;-68
2021/10/19 05:22:04;;;;;;;9.73;8.45;;;15.80;99.90;;;15.09;100.00;101544.25;4116846;28;20035;-68
2021/10/19 05:24:05;;;;;;;12.63;9.30;;;15.70;99.90;;;15.07;100.00;101548.91;4116881;28;20188;-69
2021/10/19 05:26:06;;;;;;;8.40;7.47;;;15.60;99.90;;;15.08;100.00;101544.44;4117123;28;20051;-69
2021/10/19 05:28:08;;;;;;;10.35;9.05;;;15.60;99.90;;;15.08;100.00;101555.88;4117940;28;20035;-68
2021/10/19 05:30:10;;;;;;;15.80;9.68;;;15.60;99.90;;;15.02;100.00;101547.75;4117708;28;20086;-68
2021/10/19 05:32:11;;;;;;;15.10;10.02;;;15.60;99.90;;;15.09;100.00;101556.69;4117752;28;20042;-69
2021/10/19 05:34:11;;;;;;;11.82;9.70;;;15.50;99.90;;;15.05;100.00;101545.59;4118091;28;20035;-68
2021/10/19 05:36:12;;;;;;;14.40;11.77;;;15.60;99.90;;;15.09;100.00;101549.56;4117807;28;20026;-68
2021/10/19 05:38:13;;;;;;;14.18;11.07;;;15.50;99.90;;;15.14;100.00;101546.41;4116646;28;20031;-68
2021/10/19 05:40:14;;;;;;;12.43;10.63;;;15.50;99.90;;;15.13;100.00;101553.56;4117707;28;20030;-68
2021/10/19 05:42:15;;;;;;;12.13;9.32;;;15.50;99.90;;;15.06;100.00;101552.53;4117882;28;20033;-68
2021/10/19 05:44:16;;;;;;;12.80;10.50;;;15.50;99.90;;;15.02;100.00;101543.25;4116439;28;20027;-68
2021/10/19 05:46:17;;;;;;;18.08;11.70;;;15.50;99.90;;;15.00;100.00;101539.09;4116504;28;20520;-68
2021/10/19 05:48:18;;;;;;;13.93;10.50;;;15.50;99.90;;;14.98;100.00;101539.25;4117285;28;20395;-68
2021/10/19 05:50:19;;;;;;;14.82;11.75;;;15.50;99.90;;;14.92;100.00;101540.75;4116508;28;20030;-69
2021/10/19 05:52:20;;;;;;;14.07;11.25;;;15.50;99.90;;;15.00;100.00;101539.91;4117868;28;20032;-68
2021/10/19 05:54:25;;;;;;;37.45;14.25;;;15.50;99.90;;;14.98;100.00;101541.91;4117675;28;20390;-69
2021/10/19 05:56:27;;;;;;;24.90;13.20;;;15.50;99.90;;;14.93;100.00;101533.63;4100262;28;20031;-69
2021/10/19 05:58:28;;;;;;;45.05;14.73;;;15.50;99.90;;;14.89;100.00;101530.47;4121924;28;20030;-69
2021/10/19 06:00:29;;;;;;;18.75;12.13;;;15.50;99.90;;;14.94;100.00;101536.09;4117569;28;20501;-68
2021/10/19 06:02:30;;;;;;;25.65;13.45;;;15.40;99.90;;;14.86;100.00;101530.78;4116633;28;20031;-69
2021/10/19 06:04:30;;;;;;;62.03;17.33;;;15.40;99.90;;;14.93;100.00;101531.78;4117422;28;20031;-69
2021/10/19 06:06:31;;;;;;;26.25;13.43;;;15.40;99.90;;;14.92;100.00;101537.25;4116457;28;20026;-69
2021/10/19 06:08:32;;;;;;;43.88;14.07;;;15.40;99.90;;;14.88;100.00;101531.44;4117486;28;20372;-69
2021/10/19 06:10:33;;;;;;;13.05;10.10;;;15.40;99.90;;;14.88;100.00;101527.94;4116351;28;20027;-69
2021/10/19 06:12:34;;;;;;;21.40;10.85;;;15.50;99.90;;;14.82;100.00;101523.28;4116927;28;20027;-69
2021/10/19 06:14:35;;;;;;;34.78;11.65;;;15.40;99.90;;;14.88;100.00;101522.63;4115110;28;20031;-69
2021/10/19 06:16:36;;;;;;;27.38;10.25;;;15.40;99.90;;;14.80;100.00;101507.53;4116111;28;20510;-69
2021/10/19 06:18:37;;;;;;;54.03;11.68;;;15.40;99.90;;;14.78;100.00;101521.97;4117369;28;20197;-69
2021/10/19 06:20:38;;;;;;;14.25;9.65;;;15.30;99.90;;;14.74;100.00;101520.63;4117343;28;20056;-68
2021/10/19 06:22:39;;;;;;;33.25;12.30;;;15.30;99.90;;;14.75;100.00;101514.34;4116246;28;20473;-69
2021/10/19 06:24:40;;;;;;;25.83;10.70;;;15.20;99.90;;;14.70;100.00;101513.97;4117335;28;20035;-69
2021/10/19 06:26:41;;;;;;;20.50;10.30;;;15.20;99.90;;;14.69;100.00;101515.00;4117276;28;20031;-68
2021/10/19 06:28:42;;;;;;;23.20;10.25;;;15.20;99.90;;;14.77;100.00;101515.84;4099648;29;20031;-69
2021/10/19 06:30:44;;;;;;;22.50;10.75;;;15.30;99.90;;;14.67;100.00;101515.16;4104136;28;20023;-68
2021/10/19 06:32:45;;;;;;;11.48;10.07;;;15.20;99.90;;;14.72;100.00;101512.00;4101775;28;20115;-68
2021/10/19 06:34:45;;;;;;;23.20;11.48;;;15.20;99.90;;;14.70;100.00;101509.50;4118357;28;20034;-68
2021/10/19 06:36:46;;;;;;;21.23;10.00;;;15.20;99.90;;;14.60;100.00;101502.69;4116833;28;20454;-68
2021/10/19 06:38:48;;;;;;;25.02;10.77;;;15.20;99.90;;;14.65;100.00;101498.56;4117282;28;20041;-68
2021/10/19 06:40:49;;;;;;;15.35;9.82;;;15.20;99.90;;;14.69;100.00;101507.03;4118135;28;20038;-68
2021/10/19 06:42:50;;;;;;;8.75;7.75;;;15.20;99.90;;;14.62;100.00;101512.16;4118372;28;20027;-68
2021/10/19 06:44:51;;;;;;;23.17;9.20;;;15.10;99.90;;;14.60;100.00;101510.66;4117879;28;20406;-68
2021/10/19 06:46:52;;;;;;;10.30;7.93;;;15.10;99.90;;;14.60;100.00;101508.00;4118503;28;20068;-68
2021/10/19 06:48:53;;;;;;;42.55;9.95;;;15.10;99.90;;;14.56;100.00;101502.19;4118253;28;20409;-69
2021/10/19 06:50:54;;;;;;;17.80;9.40;;;15.10;99.90;;;14.64;100.00;101507.50;4117062;28;20494;-68
2021/10/19 06:52:56;;;;;;;15.30;8.13;;;15.10;99.90;;;14.56;100.00;101511.97;4117390;28;20038;-68
2021/10/19 06:54:57;;;;;;;8.27;7.43;;;15.10;99.90;;;14.58;100.00;101507.31;4117308;28;20065;-69
2021/10/19 06:56:58;;;;;;;29.23;8.80;;;15.10;99.90;;;14.49;100.00;101503.81;4100477;29;20032;-68
2021/10/19 06:58:59;;;;;;;9.30;7.43;;;15.00;99.90;;;14.44;100.00;101500.00;4120360;28;20498;-68
2021/10/19 07:01:02;;;;;;;8.45;7.60;;;15.00;99.90;;;14.44;100.00;101497.34;4120610;28;20066;-69
2021/10/19 07:03:04;;;;;;;15.45;8.02;;;15.00;99.90;;;14.45;100.00;101506.97;4119550;28;20031;-68
2021/10/19 07:05:06;;;;;;;15.65;7.05;;;15.00;99.90;;;14.44;100.00;101511.47;4119657;28;20100;-69
2021/10/19 07:07:07;;;;;;;8.38;6.60;;;15.00;99.90;;;14.42;100.00;101507.31;4120627;28;20101;-68
2021/10/19 07:09:08;;;;;;;12.80;7.88;;;15.00;99.90;;;14.36;100.00;101506.97;4120528;28;20172;-68
2021/10/19 07:11:09;;;;;;;21.10;7.93;;;15.00;99.90;;;14.34;100.00;101508.94;4119389;28;20105;-69
2021/10/19 07:13:11;;;;;;;8.32;6.85;;;14.90;99.90;;;14.36;100.00;101519.41;4120693;28;20035;-69
2021/10/19 07:15:12;;;;;;;9.43;7.10;;;14.90;99.90;;;14.35;100.00;101510.59;4120554;28;20022;-69
2021/10/19 07:17:13;;;;;;;8.80;6.82;;;14.90;99.90;;;14.34;100.00;101524.84;4120352;28;20033;-69
2021/10/19 07:19:14;;;;;;;17.77;8.20;;;14.90;99.90;;;14.34;100.00;101516.91;4118754;28;20062;-68
2021/10/19 07:21:16;;;;;;;6.97;6.28;;;14.90;99.90;;;14.34;100.00;101516.91;4119077;28;20034;-69
2021/10/19 07:23:17;;;;;;;9.85;8.60;;;14.80;99.90;;;14.29;100.00;101526.31;4118009;28;20041;-69
2021/10/19 07:25:18;;;;;;;8.95;8.05;;;14.80;99.90;;;14.33;100.00;101519.72;4118075;28;20037;-70
2021/10/19 07:27:19;;;;;;;13.52;7.65;;;14.80;99.90;;;14.21;100.00;101516.50;4119498;28;20035;-69
2021/10/19 07:29:20;;;;;;;7.55;6.80;;;14.70;99.90;;;14.27;100.00;101520.34;4117953;28;20062;-70
2021/10/19 07:31:21;;;;;;;8.88;7.70;;;14.70;99.90;;;14.18;100.00;101524.78;4119498;28;20029;-69
2021/10/19 07:33:22;;;;;;;18.95;8.38;;;14.70;99.90;;;14.06;100.00;101528.72;4118202;28;20026;-70
2021/10/19 07:35:23;;;;;;;7.20;6.40;;;14.70;99.90;;;14.10;100.00;101514.13;4119336;28;20034;-70
2021/10/19 07:37:24;;;;;;;7.32;6.63;;;14.60;99.90;;;14.08;100.00;101518.78;4119559;28;20402;-70
2021/10/19 07:39:25;;;;;;;7.80;7.00;;;14.60;99.90;;;14.07;100.00;101530.38;4119227;28;20050;-70
2021/10/19 07:41:26;;;;;;;7.22;6.53;;;14.60;99.90;;;14.02;100.00;101526.53;4119269;28;20031;-70
2021/10/19 07:43:27;;;;;;;7.95;7.15;;;14.60;99.90;;;14.07;100.00;101516.25;4118691;28;20039;-70
2021/10/19 07:45:29;;;;;;;7.00;6.30;;;14.50;99.90;;;14.02;100.00;101519.41;4118029;28;20027;-70
2021/10/19 07:47:30;;;;;;;12.18;9.48;;;14.50;99.90;;;14.01;100.00;101527.53;4117766;28;20081;-69
2021/10/19 07:49:31;;;;;;;8.52;7.47;;;14.60;99.90;;;14.08;100.00;101529.38;4118927;28;20516;-69
2021/10/19 07:51:32;;;;;;;10.95;9.27;;;14.50;99.90;;;14.02;100.00;101537.97;4119102;28;20038;-70
2021/10/19 07:53:32;;;;;;;9.43;8.32;;;14.50;99.90;;;14.01;100.00;101536.31;4119174;28;20023;-70
2021/10/19 07:55:33;;;;;;;8.18;6.32;;;14.60;99.90;;;14.04;100.00;101536.00;4101740;29;20034;-69
2021/10/19 07:57:46;;;;;;;8.00;6.50;;;14.60;99.90;;;14.08;100.00;101540.00;4117789;28;20505;-69
2021/10/19 07:59:47;;;;;;;11.77;7.95;;;14.60;99.90;;;14.15;100.00;101541.03;4106128;28;20063;-70
2021/10/19 08:01:48;;;;;;;9.00;6.40;;;14.60;99.90;;;14.16;100.00;101531.22;4118986;28;20027;-70
2021/10/19 08:03:49;;;;;;;10.18;8.75;;;14.60;99.90;;;14.17;100.00;101533.72;4118953;28;20091;-70
2021/10/19 08:05:49;;;;;;;9.77;7.70;;;14.70;99.90;;;14.20;100.00;101538.72;4101351;28;20050;-70
2021/10/19 08:08:03;;;;;;;10.00;8.95;;;14.70;99.90;;;14.27;100.00;101547.72;4116650;28;20026;-70
2021/10/19 08:10:04;;;;;;;11.18;8.70;;;14.70;99.90;;;14.26;100.00;101532.78;4117745;28;20037;-70
2021/10/19 08:12:05;;;;;;;11.88;9.32;;;14.70;99.90;;;14.50;100.00;101541.81;4117596;28;20034;-70
2021/10/19 08:14:06;;;;;;;11.25;9.90;;;14.80;99.90;;;14.53;100.00;101555.63;4117264;28;20043;-69